sensor_id;sensor_type;location;lat;lon;timestamp;temperature;humidity
29713;DHT22;16623;53.632;10.016;2024-01-15T00:01:29;2.10;99.90
29713;DHT22;16623;53.632;10.016;2024-01-15T00:03:55;2.10;99.90
29713;DHT22;16623;53.632;10.016;2024-01-15T00:06:20;2.10;99.90
29713;DHT22;16623;53.632;10.016;2024-01-15T00:08:47;2.10;99.90
29713;DHT22;16623;53.632;10.016;2024-01-15T00:11:13;2.10;99.90
29713;DHT22;16623;53.632;10.016;2024-01-15T00:13:38;2.20;99.90
29713;DHT22;16623;53.632;10.016;2024-01-15T00:16:04;2.10;99.90
29713;DHT22;16623;53.632;10.016;2024-01-15T00:18:30;2.10;99.90
29713;DHT22;16623;53.632;10.016;2024-01-15T00:20:56;2.10;99.90
29713;DHT22;16623;53.632;10.016;2024-01-15T00:23:22;2.20;99.90
29713;DHT22;16623;53.632;10.016;2024-01-15T00:25:48;2.20;99.90
29713;DHT22;16623;53.632;10.016;2024-01-15T00:28:13;2.20;99.90
29713;DHT22;16623;53.632;10.016;2024-01-15T00:30:39;2.20;99.90
29713;DHT22;16623;53.632;10.016;2024-01-15T00:33:05;2.20;99.90
29713;DHT22;16623;53.632;10.016;2024-01-15T00:35:30;2.20;99.90
29713;DHT22;16623;53.632;10.016;2024-01-15T00:37:56;3.40;99.90
29713;DHT22;16623;53.632;10.016;2024-01-15T00:40:21;2.20;99.90
29713;DHT22;16623;53.632;10.016;2024-01-15T00:42:47;2.20;99.90
29713;DHT22;16623;53.632;10.016;2024-01-15T00:45:12;2.20;99.90
29713;DHT22;16623;53.632;10.016;2024-01-15T00:47:38;2.10;99.90
29713;DHT22;16623;53.632;10.016;2024-01-15T00:50:04;2.10;99.90
29713;DHT22;16623;53.632;10.016;2024-01-15T00:52:29;2.10;99.90
29713;DHT22;16623;53.632;10.016;2024-01-15T00:54:55;2.10;99.90
29713;DHT22;16623;53.632;10.016;2024-01-15T00:57:20;2.10;99.90
29713;DHT22;16623;53.632;10.016;2024-01-15T00:59:47;2.20;99.90
29713;DHT22;16623;53.632;10.016;2024-01-15T01:02:12;2.20;99.90
29713;DHT22;16623;53.632;10.016;2024-01-15T01:04:38;2.10;99.90
29713;DHT22;16623;53.632;10.016;2024-01-15T01:07:03;2.10;99.90
29713;DHT22;16623;53.632;10.016;2024-01-15T01:09:29;2.10;99.90
29713;DHT22;16623;53.632;10.016;2024-01-15T01:11:56;2.10;99.90
29713;DHT22;16623;53.632;10.016;2024-01-15T01:14:22;2.10;99.90
29713;DHT22;16623;53.632;10.016;2024-01-15T01:16:47;2.10;99.90
29713;DHT22;16623;53.632;10.016;2024-01-15T01:19:13;2.10;99.90
29713;DHT22;16623;53.632;10.016;2024-01-15T01:21:39;2.10;99.90
29713;DHT22;16623;53.632;10.016;2024-01-15T01:24:04;2.20;99.90
29713;DHT22;16623;53.632;10.016;2024-01-15T01:26:30;2.20;99.90
29713;DHT22;16623;53.632;10.016;2024-01-15T01:28:56;2.10;99.90
29713;DHT22;16623;53.632;10.016;2024-01-15T01:31:22;2.20;99.90
29713;DHT22;16623;53.632;10.016;2024-01-15T01:33:48;2.30;99.90
29713;DHT22;16623;53.632;10.016;2024-01-15T01:36:14;2.40;99.90
29713;DHT22;16623;53.632;10.016;2024-01-15T01:38:40;2.30;99.90
29713;DHT22;16623;53.632;10.016;2024-01-15T01:41:05;2.30;99.90
29713;DHT22;16623;53.632;10.016;2024-01-15T01:43:31;2.30;99.90
29713;DHT22;16623;53.632;10.016;2024-01-15T01:45:57;2.70;99.90
29713;DHT22;16623;53.632;10.016;2024-01-15T01:48:26;2.30;99.90
29713;DHT22;16623;53.632;10.016;2024-01-15T01:50:55;2.40;99.90
29713;DHT22;16623;53.632;10.016;2024-01-15T01:53:22;2.40;99.90
29713;DHT22;16623;53.632;10.016;2024-01-15T01:55:48;2.40;99.90
29713;DHT22;16623;53.632;10.016;2024-01-15T01:58:15;2.40;99.90
29713;DHT22;16623;53.632;10.016;2024-01-15T02:00:41;2.40;99.90
29713;DHT22;16623;53.632;10.016;2024-01-15T02:03:06;2.50;99.90
29713;DHT22;16623;53.632;10.016;2024-01-15T02:05:32;2.50;99.90
29713;DHT22;16623;53.632;10.016;2024-01-15T02:07:58;2.50;99.90
29713;DHT22;16623;53.632;10.016;2024-01-15T02:10:24;2.50;99.90
29713;DHT22;16623;53.632;10.016;2024-01-15T02:12:50;2.50;99.90
29713;DHT22;16623;53.632;10.016;2024-01-15T02:15:15;2.50;99.90
29713;DHT22;16623;53.632;10.016;2024-01-15T02:17:58;2.40;99.90
29713;DHT22;16623;53.632;10.016;2024-01-15T02:20:24;2.40;99.90
29713;DHT22;16623;53.632;10.016;2024-01-15T02:22:50;3.70;99.90
29713;DHT22;16623;53.632;10.016;2024-01-15T02:25:15;2.40;99.90
29713;DHT22;16623;53.632;10.016;2024-01-15T02:27:42;2.50;99.90
29713;DHT22;16623;53.632;10.016;2024-01-15T02:30:11;2.40;99.90
29713;DHT22;16623;53.632;10.016;2024-01-15T02:32:36;2.40;99.90
29713;DHT22;16623;53.632;10.016;2024-01-15T02:35:02;2.40;99.90
29713;DHT22;16623;53.632;10.016;2024-01-15T02:37:28;2.40;99.90
29713;DHT22;16623;53.632;10.016;2024-01-15T02:39:53;2.40;99.90
29713;DHT22;16623;53.632;10.016;2024-01-15T02:42:19;2.40;99.90
29713;DHT22;16623;53.632;10.016;2024-01-15T02:44:44;2.30;99.90
29713;DHT22;16623;53.632;10.016;2024-01-15T02:47:10;2.40;99.90
29713;DHT22;16623;53.632;10.016;2024-01-15T02:49:35;2.40;99.90
29713;DHT22;16623;53.632;10.016;2024-01-15T02:52:01;2.40;99.90
29713;DHT22;16623;53.632;10.016;2024-01-15T02:54:26;2.40;99.90
29713;DHT22;16623;53.632;10.016;2024-01-15T02:56:52;2.30;99.90
29713;DHT22;16623;53.632;10.016;2024-01-15T02:59:17;2.40;99.90
29713;DHT22;16623;53.632;10.016;2024-01-15T03:01:43;2.50;99.90
29713;DHT22;16623;53.632;10.016;2024-01-15T03:04:08;2.50;99.90
29713;DHT22;16623;53.632;10.016;2024-01-15T03:06:34;2.50;99.90
29713;DHT22;16623;53.632;10.016;2024-01-15T03:08:59;2.50;99.90
29713;DHT22;16623;53.632;10.016;2024-01-15T03:11:25;2.50;99.90
29713;DHT22;16623;53.632;10.016;2024-01-15T03:13:51;2.60;99.90
29713;DHT22;16623;53.632;10.016;2024-01-15T03:16:16;2.60;99.90
29713;DHT22;16623;53.632;10.016;2024-01-15T03:18:41;2.50;99.90
29713;DHT22;16623;53.632;10.016;2024-01-15T03:21:07;2.50;99.90
29713;DHT22;16623;53.632;10.016;2024-01-15T03:23:33;2.50;99.90
29713;DHT22;16623;53.632;10.016;2024-01-15T03:25:58;2.40;99.90
29713;DHT22;16623;53.632;10.016;2024-01-15T03:28:24;2.40;99.90
29713;DHT22;16623;53.632;10.016;2024-01-15T03:30:49;2.40;99.90
29713;DHT22;16623;53.632;10.016;2024-01-15T03:33:15;2.40;99.90
29713;DHT22;16623;53.632;10.016;2024-01-15T03:35:40;2.30;99.90
29713;DHT22;16623;53.632;10.016;2024-01-15T03:40:32;2.40;99.90
29713;DHT22;16623;53.632;10.016;2024-01-15T03:42:57;2.30;99.90
29713;DHT22;16623;53.632;10.016;2024-01-15T03:45:23;2.40;99.90
29713;DHT22;16623;53.632;10.016;2024-01-15T03:47:48;2.40;99.90
29713;DHT22;16623;53.632;10.016;2024-01-15T03:50:14;2.40;99.90
29713;DHT22;16623;53.632;10.016;2024-01-15T03:52:39;2.40;99.90
29713;DHT22;16623;53.632;10.016;2024-01-15T03:55:05;2.40;99.90
29713;DHT22;16623;53.632;10.016;2024-01-15T03:57:31;2.40;99.90
29713;DHT22;16623;53.632;10.016;2024-01-15T03:59:56;2.50;99.90
29713;DHT22;16623;53.632;10.016;2024-01-15T04:02:22;2.50;99.90
29713;DHT22;16623;53.632;10.016;2024-01-15T04:04:47;2.50;99.90
29713;DHT22;16623;53.632;10.016;2024-01-15T04:07:13;2.60;99.90
29713;DHT22;16623;53.632;10.016;2024-01-15T04:09:38;2.50;99.90
29713;DHT22;16623;53.632;10.016;2024-01-15T04:12:04;2.60;99.90
29713;DHT22;16623;53.632;10.016;2024-01-15T04:14:30;2.60;99.90
29713;DHT22;16623;53.632;10.016;2024-01-15T04:16:55;2.60;99.90
29713;DHT22;16623;53.632;10.016;2024-01-15T04:19:21;2.60;99.90
29713;DHT22;16623;53.632;10.016;2024-01-15T04:21:46;2.60;99.90
29713;DHT22;16623;53.632;10.016;2024-01-15T04:24:12;4.00;99.90
29713;DHT22;16623;53.632;10.016;2024-01-15T04:26:37;2.60;99.90
29713;DHT22;16623;53.632;10.016;2024-01-15T04:29:03;2.60;99.90
29713;DHT22;16623;53.632;10.016;2024-01-15T04:31:28;2.70;99.90
29713;DHT22;16623;53.632;10.016;2024-01-15T04:33:54;2.60;99.90
29713;DHT22;16623;53.632;10.016;2024-01-15T04:36:19;2.70;99.90
29713;DHT22;16623;53.632;10.016;2024-01-15T04:38:45;2.60;99.90
29713;DHT22;16623;53.632;10.016;2024-01-15T04:41:13;2.60;99.90
29713;DHT22;16623;53.632;10.016;2024-01-15T04:43:39;2.60;99.90
29713;DHT22;16623;53.632;10.016;2024-01-15T04:46:08;2.60;99.90
29713;DHT22;16623;53.632;10.016;2024-01-15T04:48:33;2.60;99.90
29713;DHT22;16623;53.632;10.016;2024-01-15T04:50:59;2.50;99.90
29713;DHT22;16623;53.632;10.016;2024-01-15T04:53:25;2.60;99.90
29713;DHT22;16623;53.632;10.016;2024-01-15T04:55:51;2.60;99.90
29713;DHT22;16623;53.632;10.016;2024-01-15T04:58:16;2.70;99.90
29713;DHT22;16623;53.632;10.016;2024-01-15T05:00:42;2.60;99.90
29713;DHT22;16623;53.632;10.016;2024-01-15T05:03:08;2.60;99.90
29713;DHT22;16623;53.632;10.016;2024-01-15T05:05:33;2.70;99.90
29713;DHT22;16623;53.632;10.016;2024-01-15T05:07:59;2.70;99.90
29713;DHT22;16623;53.632;10.016;2024-01-15T05:10:25;2.70;99.90
29713;DHT22;16623;53.632;10.016;2024-01-15T05:12:50;2.80;99.90
29713;DHT22;16623;53.632;10.016;2024-01-15T05:15:16;2.80;99.90
29713;DHT22;16623;53.632;10.016;2024-01-15T05:17:41;2.80;99.90
29713;DHT22;16623;53.632;10.016;2024-01-15T05:20:07;2.80;99.90
29713;DHT22;16623;53.632;10.016;2024-01-15T05:22:33;2.80;99.90
29713;DHT22;16623;53.632;10.016;2024-01-15T05:25:00;2.80;99.90
29713;DHT22;16623;53.632;10.016;2024-01-15T05:27:25;2.80;99.90
29713;DHT22;16623;53.632;10.016;2024-01-15T05:29:51;2.70;99.90
29713;DHT22;16623;53.632;10.016;2024-01-15T05:32:16;2.80;99.90
29713;DHT22;16623;53.632;10.016;2024-01-15T05:34:42;2.80;99.90
29713;DHT22;16623;53.632;10.016;2024-01-15T05:37:07;2.80;99.90
29713;DHT22;16623;53.632;10.016;2024-01-15T05:39:33;2.80;99.90
29713;DHT22;16623;53.632;10.016;2024-01-15T05:41:58;2.90;99.90
29713;DHT22;16623;53.632;10.016;2024-01-15T05:44:24;2.90;99.90
29713;DHT22;16623;53.632;10.016;2024-01-15T05:46:50;2.90;99.90
29713;DHT22;16623;53.632;10.016;2024-01-15T05:49:16;2.90;99.90
29713;DHT22;16623;53.632;10.016;2024-01-15T05:51:41;2.90;99.90
29713;DHT22;16623;53.632;10.016;2024-01-15T05:54:07;2.90;99.90
29713;DHT22;16623;53.632;10.016;2024-01-15T05:56:32;2.90;99.90
29713;DHT22;16623;53.632;10.016;2024-01-15T05:58:58;2.90;99.90
29713;DHT22;16623;53.632;10.016;2024-01-15T06:01:23;2.90;99.90
29713;DHT22;16623;53.632;10.016;2024-01-15T06:03:48;2.90;99.90
29713;DHT22;16623;53.632;10.016;2024-01-15T06:06:14;2.90;99.90
29713;DHT22;16623;53.632;10.016;2024-01-15T06:08:39;2.90;99.90
29713;DHT22;16623;53.632;10.016;2024-01-15T06:11:06;2.90;99.90
29713;DHT22;16623;53.632;10.016;2024-01-15T06:13:32;2.90;99.90
29713;DHT22;16623;53.632;10.016;2024-01-15T06:15:57;3.00;99.90
29713;DHT22;16623;53.632;10.016;2024-01-15T06:18:23;2.90;99.90
29713;DHT22;16623;53.632;10.016;2024-01-15T06:20:49;3.00;99.90
29713;DHT22;16623;53.632;10.016;2024-01-15T06:23:14;2.90;99.90
29713;DHT22;16623;53.632;10.016;2024-01-15T06:25:40;2.90;99.90
29713;DHT22;16623;53.632;10.016;2024-01-15T06:28:06;3.10;99.90
29713;DHT22;16623;53.632;10.016;2024-01-15T06:30:32;3.00;99.90
29713;DHT22;16623;53.632;10.016;2024-01-15T06:32:57;3.00;99.90
29713;DHT22;16623;53.632;10.016;2024-01-15T06:35:24;2.90;99.90
29713;DHT22;16623;53.632;10.016;2024-01-15T06:37:50;3.00;99.90
29713;DHT22;16623;53.632;10.016;2024-01-15T06:40:15;3.00;99.90
29713;DHT22;16623;53.632;10.016;2024-01-15T06:42:41;2.90;99.90
29713;DHT22;16623;53.632;10.016;2024-01-15T06:45:07;3.00;99.90
29713;DHT22;16623;53.632;10.016;2024-01-15T06:47:32;3.00;99.90
29713;DHT22;16623;53.632;10.016;2024-01-15T06:49:58;3.10;99.90
29713;DHT22;16623;53.632;10.016;2024-01-15T06:52:24;3.00;99.90
29713;DHT22;16623;53.632;10.016;2024-01-15T06:54:49;3.10;99.90
29713;DHT22;16623;53.632;10.016;2024-01-15T06:57:15;3.00;99.90
29713;DHT22;16623;53.632;10.016;2024-01-15T06:59:40;3.10;99.90
29713;DHT22;16623;53.632;10.016;2024-01-15T07:02:06;3.10;99.90
29713;DHT22;16623;53.632;10.016;2024-01-15T07:04:32;3.20;99.90
29713;DHT22;16623;53.632;10.016;2024-01-15T07:06:57;3.20;99.90
29713;DHT22;16623;53.632;10.016;2024-01-15T07:09:23;3.20;99.90
29713;DHT22;16623;53.632;10.016;2024-01-15T07:11:48;3.20;99.90
29713;DHT22;16623;53.632;10.016;2024-01-15T07:14:14;3.20;99.90
29713;DHT22;16623;53.632;10.016;2024-01-15T07:16:39;3.20;99.90
29713;DHT22;16623;53.632;10.016;2024-01-15T07:19:05;3.10;99.90
29713;DHT22;16623;53.632;10.016;2024-01-15T07:21:31;3.10;99.90
29713;DHT22;16623;53.632;10.016;2024-01-15T07:23:56;3.10;99.90
29713;DHT22;16623;53.632;10.016;2024-01-15T07:26:22;3.00;99.90
29713;DHT22;16623;53.632;10.016;2024-01-15T07:28:47;3.10;99.90
29713;DHT22;16623;53.632;10.016;2024-01-15T07:31:15;3.10;99.90
29713;DHT22;16623;53.632;10.016;2024-01-15T07:33:41;3.10;99.90
29713;DHT22;16623;53.632;10.016;2024-01-15T07:36:07;3.10;99.90
29713;DHT22;16623;53.632;10.016;2024-01-15T07:38:32;3.00;99.90
29713;DHT22;16623;53.632;10.016;2024-01-15T07:40:58;3.10;99.90
29713;DHT22;16623;53.632;10.016;2024-01-15T07:43:23;3.10;99.90
29713;DHT22;16623;53.632;10.016;2024-01-15T07:45:49;3.10;99.90
29713;DHT22;16623;53.632;10.016;2024-01-15T07:48:14;3.10;99.90
29713;DHT22;16623;53.632;10.016;2024-01-15T07:50:40;3.10;99.90
29713;DHT22;16623;53.632;10.016;2024-01-15T07:53:06;3.10;99.90
29713;DHT22;16623;53.632;10.016;2024-01-15T07:55:31;3.10;99.90
29713;DHT22;16623;53.632;10.016;2024-01-15T07:57:57;3.10;99.90
29713;DHT22;16623;53.632;10.016;2024-01-15T08:00:25;3.10;99.90
29713;DHT22;16623;53.632;10.016;2024-01-15T08:02:50;3.00;99.90
29713;DHT22;16623;53.632;10.016;2024-01-15T08:05:16;3.10;99.90
29713;DHT22;16623;53.632;10.016;2024-01-15T08:07:42;3.10;99.90
29713;DHT22;16623;53.632;10.016;2024-01-15T08:12:33;3.10;99.90
29713;DHT22;16623;53.632;10.016;2024-01-15T08:14:59;3.10;99.90
29713;DHT22;16623;53.632;10.016;2024-01-15T08:17:25;4.60;99.90
29713;DHT22;16623;53.632;10.016;2024-01-15T08:19:54;3.20;99.90
29713;DHT22;16623;53.632;10.016;2024-01-15T08:22:20;3.20;99.90
29713;DHT22;16623;53.632;10.016;2024-01-15T08:24:45;3.20;99.90
29713;DHT22;16623;53.632;10.016;2024-01-15T08:27:11;3.20;99.90
29713;DHT22;16623;53.632;10.016;2024-01-15T08:29:36;3.20;99.90
29713;DHT22;16623;53.632;10.016;2024-01-15T08:32:02;3.20;99.90
29713;DHT22;16623;53.632;10.016;2024-01-15T08:34:27;3.20;99.90
29713;DHT22;16623;53.632;10.016;2024-01-15T08:36:54;3.30;99.90
29713;DHT22;16623;53.632;10.016;2024-01-15T08:39:19;3.30;99.90
29713;DHT22;16623;53.632;10.016;2024-01-15T08:41:45;3.30;99.90
29713;DHT22;16623;53.632;10.016;2024-01-15T08:44:12;3.30;99.90
29713;DHT22;16623;53.632;10.016;2024-01-15T08:46:37;3.30;99.90
29713;DHT22;16623;53.632;10.016;2024-01-15T08:49:03;3.30;99.90
29713;DHT22;16623;53.632;10.016;2024-01-15T08:51:29;3.30;99.90
29713;DHT22;16623;53.632;10.016;2024-01-15T08:53:56;3.30;99.90
29713;DHT22;16623;53.632;10.016;2024-01-15T08:56:21;3.30;99.90
29713;DHT22;16623;53.632;10.016;2024-01-15T08:58:47;3.30;99.90
29713;DHT22;16623;53.632;10.016;2024-01-15T09:01:12;3.30;99.90
29713;DHT22;16623;53.632;10.016;2024-01-15T09:03:39;3.20;99.90
29713;DHT22;16623;53.632;10.016;2024-01-15T09:06:04;3.20;99.90
29713;DHT22;16623;53.632;10.016;2024-01-15T09:08:30;3.30;99.90
29713;DHT22;16623;53.632;10.016;2024-01-15T09:10:55;3.20;99.90
29713;DHT22;16623;53.632;10.016;2024-01-15T09:13:21;3.20;99.90
29713;DHT22;16623;53.632;10.016;2024-01-15T09:15:46;3.10;99.90
29713;DHT22;16623;53.632;10.016;2024-01-15T09:18:12;3.00;99.90
29713;DHT22;16623;53.632;10.016;2024-01-15T09:20:37;2.90;99.90
29713;DHT22;16623;53.632;10.016;2024-01-15T09:23:04;2.90;99.90
29713;DHT22;16623;53.632;10.016;2024-01-15T09:25:29;2.80;99.90
29713;DHT22;16623;53.632;10.016;2024-01-15T09:27:55;2.80;99.90
29713;DHT22;16623;53.632;10.016;2024-01-15T09:30:20;2.80;99.90
29713;DHT22;16623;53.632;10.016;2024-01-15T09:32:46;2.80;99.90
29713;DHT22;16623;53.632;10.016;2024-01-15T09:35:11;2.80;99.90
29713;DHT22;16623;53.632;10.016;2024-01-15T09:37:37;2.80;99.90
29713;DHT22;16623;53.632;10.016;2024-01-15T09:40:04;2.70;99.90
29713;DHT22;16623;53.632;10.016;2024-01-15T09:42:30;2.60;99.90
29713;DHT22;16623;53.632;10.016;2024-01-15T09:44:56;2.60;99.90
29713;DHT22;16623;53.632;10.016;2024-01-15T09:47:22;2.60;99.90
29713;DHT22;16623;53.632;10.016;2024-01-15T09:49:50;2.60;99.90
29713;DHT22;16623;53.632;10.016;2024-01-15T09:52:16;2.60;99.90
29713;DHT22;16623;53.632;10.016;2024-01-15T09:54:46;2.60;99.90
29713;DHT22;16623;53.632;10.016;2024-01-15T09:57:11;2.60;99.90
29713;DHT22;16623;53.632;10.016;2024-01-15T09:59:37;4.50;99.90
29713;DHT22;16623;53.632;10.016;2024-01-15T10:02:04;2.50;99.90
29713;DHT22;16623;53.632;10.016;2024-01-15T10:04:31;2.60;99.90
29713;DHT22;16623;53.632;10.016;2024-01-15T10:07:00;2.50;99.90
29713;DHT22;16623;53.632;10.016;2024-01-15T10:09:26;2.50;99.90
29713;DHT22;16623;53.632;10.016;2024-01-15T10:11:51;2.40;99.90
29713;DHT22;16623;53.632;10.016;2024-01-15T10:14:17;2.50;99.90
29713;DHT22;16623;53.632;10.016;2024-01-15T10:16:42;2.50;99.90
29713;DHT22;16623;53.632;10.016;2024-01-15T10:19:09;2.50;99.90
29713;DHT22;16623;53.632;10.016;2024-01-15T10:21:35;2.60;99.90
29713;DHT22;16623;53.632;10.016;2024-01-15T10:24:01;2.60;99.90
29713;DHT22;16623;53.632;10.016;2024-01-15T10:26:28;2.80;99.90
29713;DHT22;16623;53.632;10.016;2024-01-15T10:28:53;2.70;99.90
29713;DHT22;16623;53.632;10.016;2024-01-15T10:31:19;2.90;99.90
29713;DHT22;16623;53.632;10.016;2024-01-15T10:33:48;2.90;99.90
29713;DHT22;16623;53.632;10.016;2024-01-15T10:36:15;2.90;99.90
29713;DHT22;16623;53.632;10.016;2024-01-15T10:38:43;3.20;99.90
29713;DHT22;16623;53.632;10.016;2024-01-15T10:41:09;2.90;99.90
29713;DHT22;16623;53.632;10.016;2024-01-15T10:43:34;2.80;99.90
29713;DHT22;16623;53.632;10.016;2024-01-15T10:46:00;2.80;99.90
29713;DHT22;16623;53.632;10.016;2024-01-15T10:48:28;2.80;99.90
29713;DHT22;16623;53.632;10.016;2024-01-15T10:50:59;2.80;99.90
29713;DHT22;16623;53.632;10.016;2024-01-15T10:53:24;2.90;99.90
29713;DHT22;16623;53.632;10.016;2024-01-15T10:55:51;2.90;99.90
29713;DHT22;16623;53.632;10.016;2024-01-15T10:58:19;2.90;99.90
29713;DHT22;16623;53.632;10.016;2024-01-15T11:00:45;2.90;99.90
29713;DHT22;16623;53.632;10.016;2024-01-15T11:03:11;2.90;99.90
29713;DHT22;16623;53.632;10.016;2024-01-15T11:05:38;2.90;99.90
29713;DHT22;16623;53.632;10.016;2024-01-15T11:08:07;2.90;99.90
29713;DHT22;16623;53.632;10.016;2024-01-15T11:10:46;2.90;99.90
29713;DHT22;16623;53.632;10.016;2024-01-15T11:15:56;3.00;99.90
29713;DHT22;16623;53.632;10.016;2024-01-15T11:18:22;3.00;99.90
29713;DHT22;16623;53.632;10.016;2024-01-15T11:23:52;2.90;99.90
29713;DHT22;16623;53.632;10.016;2024-01-15T11:29:02;2.90;99.90
29713;DHT22;16623;53.632;10.016;2024-01-15T11:31:30;3.00;99.90
29713;DHT22;16623;53.632;10.016;2024-01-15T11:34:15;2.90;99.90
29713;DHT22;16623;53.632;10.016;2024-01-15T11:41:57;3.10;99.90
29713;DHT22;16623;53.632;10.016;2024-01-15T11:44:24;3.20;99.90
29713;DHT22;16623;53.632;10.016;2024-01-15T11:47:09;3.20;99.90
29713;DHT22;16623;53.632;10.016;2024-01-15T11:50:01;3.20;99.90
29713;DHT22;16623;53.632;10.016;2024-01-15T11:52:35;3.40;99.90
29713;DHT22;16623;53.632;10.016;2024-01-15T11:55:19;3.40;99.90
29713;DHT22;16623;53.632;10.016;2024-01-15T11:57:52;3.30;99.90
29713;DHT22;16623;53.632;10.016;2024-01-15T12:00:18;3.40;99.90
29713;DHT22;16623;53.632;10.016;2024-01-15T12:02:48;3.40;99.90
29713;DHT22;16623;53.632;10.016;2024-01-15T12:05:17;3.40;99.90
29713;DHT22;16623;53.632;10.016;2024-01-15T12:07:45;3.30;99.90
29713;DHT22;16623;53.632;10.016;2024-01-15T12:10:21;3.50;99.90
29713;DHT22;16623;53.632;10.016;2024-01-15T12:13:14;3.50;99.90
29713;DHT22;16623;53.632;10.016;2024-01-15T12:15:41;3.60;99.90
29713;DHT22;16623;53.632;10.016;2024-01-15T12:18:08;3.60;99.90
29713;DHT22;16623;53.632;10.016;2024-01-15T12:20:34;3.70;99.90
29713;DHT22;16623;53.632;10.016;2024-01-15T12:23:00;3.60;99.90
29713;DHT22;16623;53.632;10.016;2024-01-15T12:25:26;3.70;99.90
29713;DHT22;16623;53.632;10.016;2024-01-15T12:27:53;3.70;99.90
29713;DHT22;16623;53.632;10.016;2024-01-15T12:30:19;3.70;99.90
29713;DHT22;16623;53.632;10.016;2024-01-15T12:32:45;3.60;99.90
29713;DHT22;16623;53.632;10.016;2024-01-15T12:35:13;3.60;99.90
29713;DHT22;16623;53.632;10.016;2024-01-15T12:37:39;3.50;99.90
29713;DHT22;16623;53.632;10.016;2024-01-15T12:40:09;3.60;99.90
29713;DHT22;16623;53.632;10.016;2024-01-15T12:42:41;3.60;99.90
29713;DHT22;16623;53.632;10.016;2024-01-15T12:45:09;3.60;99.90
29713;DHT22;16623;53.632;10.016;2024-01-15T12:47:36;3.50;99.90
29713;DHT22;16623;53.632;10.016;2024-01-15T12:50:01;3.50;99.90
29713;DHT22;16623;53.632;10.016;2024-01-15T12:52:28;3.40;99.90
29713;DHT22;16623;53.632;10.016;2024-01-15T12:54:56;3.40;99.90
29713;DHT22;16623;53.632;10.016;2024-01-15T12:57:22;3.40;99.90
29713;DHT22;16623;53.632;10.016;2024-01-15T12:59:49;3.40;99.90
29713;DHT22;16623;53.632;10.016;2024-01-15T13:02:15;3.40;99.90
29713;DHT22;16623;53.632;10.016;2024-01-15T13:04:41;3.40;99.90
29713;DHT22;16623;53.632;10.016;2024-01-15T13:07:07;3.30;99.90
29713;DHT22;16623;53.632;10.016;2024-01-15T13:09:33;3.30;99.90
29713;DHT22;16623;53.632;10.016;2024-01-15T13:12:00;3.30;99.90
29713;DHT22;16623;53.632;10.016;2024-01-15T13:14:26;3.30;99.90
29713;DHT22;16623;53.632;10.016;2024-01-15T13:16:52;3.30;99.90
29713;DHT22;16623;53.632;10.016;2024-01-15T13:19:19;3.30;99.90
29713;DHT22;16623;53.632;10.016;2024-01-15T13:21:44;3.40;99.90
29713;DHT22;16623;53.632;10.016;2024-01-15T13:24:11;3.30;99.90
29713;DHT22;16623;53.632;10.016;2024-01-15T13:26:37;3.30;99.90
29713;DHT22;16623;53.632;10.016;2024-01-15T13:29:03;3.30;99.90
29713;DHT22;16623;53.632;10.016;2024-01-15T13:31:30;3.30;99.90
29713;DHT22;16623;53.632;10.016;2024-01-15T13:33:55;3.30;99.90
29713;DHT22;16623;53.632;10.016;2024-01-15T13:36:22;3.20;99.90
29713;DHT22;16623;53.632;10.016;2024-01-15T13:38:50;3.10;99.90
29713;DHT22;16623;53.632;10.016;2024-01-15T13:41:17;3.00;99.90
29713;DHT22;16623;53.632;10.016;2024-01-15T13:43:47;3.00;99.90
29713;DHT22;16623;53.632;10.016;2024-01-15T13:46:13;3.00;99.90
29713;DHT22;16623;53.632;10.016;2024-01-15T13:48:38;2.90;99.90
29713;DHT22;16623;53.632;10.016;2024-01-15T13:51:04;3.90;99.90
29713;DHT22;16623;53.632;10.016;2024-01-15T13:53:30;3.00;99.90
29713;DHT22;16623;53.632;10.016;2024-01-15T13:55:56;2.80;99.90
29713;DHT22;16623;53.632;10.016;2024-01-15T13:58:21;2.80;99.90
29713;DHT22;16623;53.632;10.016;2024-01-15T14:00:47;2.90;99.90
29713;DHT22;16623;53.632;10.016;2024-01-15T14:03:14;2.90;99.90
29713;DHT22;16623;53.632;10.016;2024-01-15T14:05:39;2.80;99.90
29713;DHT22;16623;53.632;10.016;2024-01-15T14:08:05;2.70;99.90
29713;DHT22;16623;53.632;10.016;2024-01-15T14:10:31;2.70;99.90
29713;DHT22;16623;53.632;10.016;2024-01-15T14:12:56;2.80;99.90
29713;DHT22;16623;53.632;10.016;2024-01-15T14:15:22;2.70;99.90
29713;DHT22;16623;53.632;10.016;2024-01-15T14:17:47;2.70;99.90
29713;DHT22;16623;53.632;10.016;2024-01-15T14:20:13;2.80;99.90
29713;DHT22;16623;53.632;10.016;2024-01-15T14:22:39;2.80;99.90
29713;DHT22;16623;53.632;10.016;2024-01-15T14:25:04;2.80;99.90
29713;DHT22;16623;53.632;10.016;2024-01-15T14:27:30;2.80;99.90
29713;DHT22;16623;53.632;10.016;2024-01-15T14:29:56;2.80;99.90
29713;DHT22;16623;53.632;10.016;2024-01-15T14:32:21;2.70;99.90
29713;DHT22;16623;53.632;10.016;2024-01-15T14:34:47;2.70;99.90
29713;DHT22;16623;53.632;10.016;2024-01-15T14:37:13;2.70;99.90
29713;DHT22;16623;53.632;10.016;2024-01-15T14:39:39;2.70;99.90
29713;DHT22;16623;53.632;10.016;2024-01-15T14:42:04;2.70;99.90
29713;DHT22;16623;53.632;10.016;2024-01-15T14:44:30;2.60;99.90
29713;DHT22;16623;53.632;10.016;2024-01-15T14:46:57;2.60;99.90
29713;DHT22;16623;53.632;10.016;2024-01-15T14:49:24;2.50;99.90
29713;DHT22;16623;53.632;10.016;2024-01-15T14:51:50;2.50;99.90
29713;DHT22;16623;53.632;10.016;2024-01-15T14:54:16;2.40;99.90
29713;DHT22;16623;53.632;10.016;2024-01-15T14:56:41;2.40;99.90
29713;DHT22;16623;53.632;10.016;2024-01-15T14:59:08;2.30;99.90
29713;DHT22;16623;53.632;10.016;2024-01-15T15:01:34;2.30;99.90
29713;DHT22;16623;53.632;10.016;2024-01-15T15:04:01;2.30;99.90
29713;DHT22;16623;53.632;10.016;2024-01-15T15:06:26;2.20;99.90
29713;DHT22;16623;53.632;10.016;2024-01-15T15:08:53;2.10;99.90
29713;DHT22;16623;53.632;10.016;2024-01-15T15:11:27;2.00;99.90
29713;DHT22;16623;53.632;10.016;2024-01-15T15:13:53;2.00;99.90
29713;DHT22;16623;53.632;10.016;2024-01-15T15:16:18;1.90;99.90
29713;DHT22;16623;53.632;10.016;2024-01-15T15:18:44;2.00;99.90
29713;DHT22;16623;53.632;10.016;2024-01-15T15:21:11;1.90;99.90
29713;DHT22;16623;53.632;10.016;2024-01-15T15:23:37;1.80;99.90
29713;DHT22;16623;53.632;10.016;2024-01-15T15:26:04;1.80;99.90
29713;DHT22;16623;53.632;10.016;2024-01-15T15:28:30;1.80;99.90
29713;DHT22;16623;53.632;10.016;2024-01-15T15:30:55;1.70;99.90
29713;DHT22;16623;53.632;10.016;2024-01-15T15:33:23;1.80;99.90
29713;DHT22;16623;53.632;10.016;2024-01-15T15:35:49;1.70;99.90
29713;DHT22;16623;53.632;10.016;2024-01-15T15:38:17;1.70;99.90
29713;DHT22;16623;53.632;10.016;2024-01-15T15:40:42;1.60;99.90
29713;DHT22;16623;53.632;10.016;2024-01-15T15:43:08;1.60;99.90